createdAt,value
2023-02-15T00:02:48.735Z,4.30
2023-02-15T00:05:51.283Z,4.00
2023-02-15T00:08:55.239Z,2.78
2023-02-15T00:11:58.004Z,1.88
2023-02-15T00:15:00.524Z,4.88
2023-02-15T00:18:03.074Z,4.93
2023-02-15T00:21:07.450Z,6.30
2023-02-15T00:24:12.165Z,5.07
2023-02-15T00:27:14.786Z,3.67
2023-02-15T00:30:17.664Z,5.70
2023-02-15T00:33:20.855Z,4.18
2023-02-15T00:36:23.431Z,5.00
2023-02-15T00:39:26.727Z,2.72
2023-02-15T00:42:29.242Z,3.03
2023-02-15T00:45:31.920Z,2.13
2023-02-15T00:48:34.524Z,3.47
2023-02-15T00:51:37.042Z,3.58
2023-02-15T00:54:40.242Z,2.83
2023-02-15T00:57:43.330Z,2.95
2023-02-15T01:00:47.672Z,4.32
2023-02-15T01:03:50.554Z,2.92
2023-02-15T01:06:53.494Z,4.95
2023-02-15T01:09:56.057Z,3.05
2023-02-15T01:12:58.630Z,2.58
2023-02-15T01:16:01.721Z,2.00
2023-02-15T01:19:04.586Z,2.30
2023-02-15T01:22:07.843Z,2.22
2023-02-15T01:25:11.578Z,2.83
2023-02-15T01:28:14.223Z,3.00
2023-02-15T01:31:18.460Z,2.10
2023-02-15T01:34:21.485Z,2.67
2023-02-15T01:37:24.215Z,2.78
2023-02-15T01:40:27.162Z,2.78
2023-02-15T01:43:43.797Z,2.83
2023-02-15T01:46:50.835Z,2.38
2023-02-15T01:50:05.393Z,3.58
2023-02-15T01:53:20.234Z,4.60
2023-02-15T01:56:29.694Z,3.95
2023-02-15T01:59:33.416Z,3.25
2023-02-15T02:02:37.447Z,1.90
2023-02-15T02:05:40.986Z,9.75
2023-02-15T02:08:43.634Z,2.05
2023-02-15T02:11:49.775Z,1.70
2023-02-15T02:14:52.988Z,3.20
2023-02-15T02:18:10.915Z,3.33
2023-02-15T02:21:36.484Z,1.83
2023-02-15T02:24:41.843Z,2.50
2023-02-15T02:28:16.453Z,3.47
2023-02-15T02:31:40.959Z,5.25
2023-02-15T02:34:56.610Z,2.15
2023-02-15T02:38:38.523Z,5.38
2023-02-15T02:41:55.896Z,1.88
2023-02-15T02:45:03.289Z,1.85
2023-02-15T02:48:16.628Z,12.30
2023-02-15T02:51:31.973Z,1.63
2023-02-15T02:54:41.320Z,1.58
2023-02-15T02:57:55.019Z,2.90
2023-02-15T03:01:02.666Z,3.95
2023-02-15T03:04:10.506Z,1.38
2023-02-15T03:07:17.264Z,0.90
2023-02-15T03:10:22.612Z,2.03
2023-02-15T03:13:27.750Z,2.25
2023-02-15T03:16:31.003Z,2.45
2023-02-15T03:19:36.209Z,1.73
2023-02-15T03:22:53.112Z,1.33
2023-02-15T03:26:02.017Z,1.20
2023-02-15T03:29:09.551Z,2.30
2023-02-15T03:32:14.648Z,1.75
2023-02-15T03:35:17.591Z,1.88
2023-02-15T03:38:29.681Z,1.52
2023-02-15T03:41:35.742Z,1.30
2023-02-15T03:44:54.850Z,1.63
2023-02-15T03:47:58.393Z,1.73
2023-02-15T03:51:29.689Z,1.58
2023-02-15T03:54:43.833Z,13.23
2023-02-15T03:58:05.482Z,6.70
2023-02-15T04:01:36.245Z,1.75
2023-02-15T04:04:42.299Z,1.38
2023-02-15T04:07:45.361Z,2.33
2023-02-15T04:10:53.908Z,0.98
2023-02-15T04:13:57.840Z,1.70
2023-02-15T04:17:00.427Z,1.48
2023-02-15T04:20:21.903Z,3.17
2023-02-15T04:23:42.972Z,1.88
2023-02-15T04:26:45.536Z,1.52
2023-02-15T04:29:51.136Z,1.05
2023-02-15T04:32:55.206Z,2.00
2023-02-15T04:35:57.838Z,1.33
2023-02-15T04:39:00.766Z,1.23
2023-02-15T04:42:03.364Z,1.60
2023-02-15T04:45:06.418Z,1.25
2023-02-15T04:48:09.041Z,1.95
2023-02-15T04:51:12.403Z,1.23
2023-02-15T04:54:14.892Z,1.40
2023-02-15T04:57:17.584Z,1.23
2023-02-15T05:00:20.362Z,1.73
2023-02-15T05:03:22.943Z,1.85
2023-02-15T05:06:25.524Z,1.73
2023-02-15T05:09:28.287Z,1.63
2023-02-15T05:12:31.095Z,2.00
2023-02-15T05:15:33.730Z,2.20
2023-02-15T05:18:36.409Z,1.42
2023-02-15T05:21:39.055Z,2.85
2023-02-15T05:25:00.331Z,2.15
2023-02-15T05:28:21.345Z,1.73
2023-02-15T05:31:24.395Z,2.38
2023-02-15T05:34:27.685Z,3.60
2023-02-15T05:37:30.454Z,3.50
2023-02-15T05:40:33.643Z,3.60
2023-02-15T05:43:36.746Z,4.30
2023-02-15T05:46:39.941Z,2.55
2023-02-15T05:49:42.627Z,1.40
2023-02-15T05:52:46.118Z,1.67
2023-02-15T05:55:49.490Z,2.33
2023-02-15T05:58:54.581Z,2.10
2023-02-15T06:01:57.704Z,1.23
2023-02-15T06:05:00.582Z,1.58
2023-02-15T06:08:05.850Z,3.63
2023-02-15T06:11:09.402Z,2.22
2023-02-15T06:14:12.553Z,1.63
2023-02-15T06:17:15.351Z,2.45
2023-02-15T06:20:18.555Z,1.90
2023-02-15T06:23:21.327Z,1.95
2023-02-15T06:26:24.224Z,1.83
2023-02-15T06:29:27.199Z,2.97
2023-02-15T06:32:32.028Z,3.65
2023-02-15T06:35:34.839Z,5.13
2023-02-15T06:38:37.957Z,3.05
2023-02-15T06:41:43.293Z,5.57
2023-02-15T06:44:46.643Z,2.50
2023-02-15T06:47:49.467Z,7.25
2023-02-15T06:50:52.174Z,3.70
2023-02-15T06:53:54.933Z,2.90
2023-02-15T06:56:57.616Z,7.95
2023-02-15T07:00:00.880Z,11.25
2023-02-15T07:03:04.054Z,18.02
2023-02-15T07:06:12.076Z,31.92
2023-02-15T07:09:14.762Z,10.50
2023-02-15T07:12:36.345Z,7.63
2023-02-15T07:15:39.095Z,6.70
2023-02-15T07:18:42.136Z,13.90
2023-02-15T07:21:46.750Z,8.07
2023-02-15T07:24:50.671Z,5.75
2023-02-15T07:28:04.093Z,4.15
2023-02-15T07:31:06.891Z,8.93
2023-02-15T07:34:10.264Z,15.60
2023-02-15T07:37:13.023Z,26.55
2023-02-15T07:40:16.491Z,27.08
2023-02-15T07:43:19.336Z,14.57
2023-02-15T07:46:23.040Z,10.23
2023-02-15T07:49:25.821Z,18.17
2023-02-15T07:52:29.326Z,12.23
2023-02-15T07:55:32.672Z,8.27
2023-02-15T07:58:54.056Z,10.80
2023-02-15T08:01:58.376Z,5.93
2023-02-15T08:05:01.292Z,6.68
2023-02-15T08:08:04.970Z,3.92
2023-02-15T08:11:27.273Z,4.78
2023-02-15T08:14:29.889Z,4.10
2023-02-15T08:17:32.452Z,4.40
2023-02-15T08:20:34.939Z,4.30
2023-02-15T08:23:37.675Z,5.50
2023-02-15T08:26:42.425Z,4.55
2023-02-15T08:29:45.514Z,5.63
2023-02-15T08:32:48.170Z,5.35
2023-02-15T08:35:50.780Z,3.97
2023-02-15T08:38:53.601Z,6.35
2023-02-15T08:41:56.390Z,4.65
2023-02-15T08:44:59.189Z,5.43
2023-02-15T08:48:02.377Z,4.65
2023-02-15T08:59:05.813Z,5.28
2023-02-15T09:02:11.444Z,5.55
2023-02-15T09:09:34.186Z,8.03
2023-02-15T09:12:36.954Z,5.63
2023-02-15T09:15:39.585Z,5.25
2023-02-15T09:18:42.248Z,5.10
2023-02-15T09:21:44.848Z,6.20
2023-02-15T09:24:47.660Z,6.13
2023-02-15T09:27:50.272Z,5.13
2023-02-15T09:30:54.372Z,6.13
2023-02-15T09:33:57.600Z,3.20
2023-02-15T09:37:00.145Z,4.20
2023-02-15T09:40:02.811Z,5.30
2023-02-15T09:43:16.722Z,4.95
2023-02-15T09:46:25.197Z,4.50
2023-02-15T09:49:33.804Z,5.80
2023-02-15T09:53:10.959Z,7.20
2023-02-15T09:56:31.118Z,6.55
2023-02-15T09:59:47.369Z,4.28
2023-02-15T10:03:01.292Z,5.35
2023-02-15T10:06:06.964Z,5.75
2023-02-15T10:09:47.720Z,4.70
2023-02-15T10:13:10.742Z,3.90
2023-02-15T10:16:35.850Z,4.85
2023-02-15T10:19:58.917Z,6.32
2023-02-15T10:23:20.215Z,5.53
2023-02-15T10:26:28.271Z,5.85
2023-02-15T10:29:38.811Z,5.70
2023-02-15T10:33:05.057Z,5.38
2023-02-15T10:36:46.911Z,4.30
2023-02-15T10:40:20.889Z,4.70
2023-02-15T10:43:58.912Z,4.97
2023-02-15T10:47:34.996Z,6.40
2023-02-15T10:50:54.342Z,4.95
2023-02-15T10:54:29.845Z,5.35
2023-02-15T10:57:38.641Z,6.40
2023-02-15T11:00:49.021Z,3.47
2023-02-15T11:04:18.220Z,4.55
2023-02-15T11:07:28.378Z,5.38
2023-02-15T11:10:43.611Z,5.05
2023-02-15T11:13:50.903Z,5.25
2023-02-15T11:20:08.917Z,4.90
2023-02-15T11:23:17.395Z,4.53
2023-02-15T11:26:39.594Z,6.05
2023-02-15T11:29:54.528Z,5.53
2023-02-15T11:32:59.521Z,6.15
2023-02-15T11:36:06.722Z,5.30
2023-02-15T11:42:20.425Z,4.82
2023-02-15T11:45:29.331Z,4.75
2023-02-15T11:48:33.124Z,5.13
2023-02-15T11:51:36.460Z,4.82
2023-02-15T11:54:43.219Z,5.50
2023-02-15T11:57:51.828Z,5.85
2023-02-15T12:01:10.668Z,5.25
2023-02-15T12:04:22.696Z,6.10
2023-02-15T12:07:48.423Z,5.63
2023-02-15T12:11:13.769Z,5.35
2023-02-15T12:14:19.212Z,5.57
2023-02-15T12:17:23.262Z,8.10
2023-02-15T12:20:30.391Z,6.18
2023-02-15T12:26:36.854Z,6.47
2023-02-15T12:29:45.365Z,7.20
2023-02-15T12:33:25.180Z,6.68
2023-02-15T12:36:33.733Z,7.07
2023-02-15T12:39:36.312Z,5.88
2023-02-15T12:42:44.371Z,5.75
2023-02-15T12:45:47.022Z,6.88
2023-02-15T12:49:08.044Z,6.95
2023-02-15T12:52:20.660Z,6.28
2023-02-15T12:55:31.060Z,6.97
2023-02-15T12:58:35.818Z,6.20
2023-02-15T13:01:38.621Z,6.63
2023-02-15T13:04:49.277Z,6.38
2023-02-15T13:07:56.022Z,6.05
2023-02-15T13:11:11.066Z,6.53
2023-02-15T13:14:23.141Z,5.85
2023-02-15T13:17:32.786Z,6.40
2023-02-15T13:20:36.599Z,6.75
2023-02-15T13:23:40.992Z,7.35
2023-02-15T13:26:48.309Z,6.95
2023-02-15T13:29:54.481Z,7.43
2023-02-15T13:33:12.208Z,8.27
2023-02-15T13:39:58.464Z,7.35
2023-02-15T13:43:12.683Z,8.30
2023-02-15T13:46:53.037Z,7.57
2023-02-15T13:50:28.696Z,8.32
2023-02-15T13:53:43.509Z,8.65
2023-02-15T13:56:55.000Z,9.27
2023-02-15T13:59:57.910Z,9.07
2023-02-15T14:03:22.261Z,8.10
2023-02-15T14:06:43.796Z,7.45
2023-02-15T14:10:15.755Z,11.02
2023-02-15T14:13:39.596Z,9.13
2023-02-15T14:17:05.793Z,8.60
2023-02-15T14:20:41.377Z,8.98
2023-02-15T14:23:54.773Z,8.85
2023-02-15T14:27:20.906Z,8.25
2023-02-15T14:30:38.997Z,8.98
2023-02-15T14:33:47.323Z,8.70
2023-02-15T14:36:52.216Z,9.55
2023-02-15T14:41:02.566Z,9.13
2023-02-15T14:44:27.216Z,11.73
2023-02-15T14:47:37.374Z,9.82
2023-02-15T14:50:43.926Z,10.75
2023-02-15T14:53:47.521Z,9.38
2023-02-15T14:57:02.346Z,9.20
2023-02-15T15:00:35.370Z,9.38
2023-02-15T15:03:38.453Z,10.93
2023-02-15T15:06:45.129Z,9.80
2023-02-15T15:09:59.506Z,10.77
2023-02-15T15:13:34.090Z,11.02
2023-02-15T15:16:36.722Z,9.40
2023-02-15T15:19:52.762Z,9.27
2023-02-15T15:23:22.253Z,9.73
2023-02-15T15:26:26.498Z,9.77
2023-02-15T15:29:41.975Z,10.60
2023-02-15T15:32:59.768Z,10.45
2023-02-15T15:36:37.968Z,10.55
2023-02-15T15:39:55.625Z,10.68
2023-02-15T15:46:51.770Z,11.25
2023-02-15T15:49:58.819Z,12.10
2023-02-15T15:53:02.857Z,10.95
2023-02-15T15:56:11.597Z,9.20
2023-02-15T15:59:20.221Z,8.15
2023-02-15T16:02:24.803Z,8.82
2023-02-15T16:05:27.694Z,10.45
2023-02-15T16:08:31.688Z,14.35
2023-02-15T16:11:34.876Z,13.52
2023-02-15T16:14:39.962Z,13.30
2023-02-15T16:17:44.784Z,14.05
2023-02-15T16:20:52.869Z,15.32
2023-02-15T16:24:19.128Z,15.98
2023-02-15T16:27:38.129Z,15.30
2023-02-15T16:30:43.396Z,11.30
2023-02-15T16:33:47.523Z,10.68
2023-02-15T16:36:52.099Z,12.57
2023-02-15T16:39:56.256Z,15.52
2023-02-15T16:43:06.298Z,19.60
2023-02-15T16:46:14.904Z,18.42
2023-02-15T16:49:23.551Z,19.17
2023-02-15T16:52:27.651Z,18.85
2023-02-15T16:55:38.957Z,16.00
2023-02-15T16:58:44.388Z,13.15
2023-02-15T17:01:47.387Z,14.45
2023-02-15T17:05:21.085Z,13.98
2023-02-15T17:08:35.555Z,14.70
2023-02-15T17:11:42.860Z,12.82
2023-02-15T17:17:48.207Z,12.40
2023-02-15T17:20:52.905Z,12.77
2023-02-15T17:24:01.390Z,10.40
2023-02-15T17:27:26.140Z,12.95
2023-02-15T17:30:34.873Z,10.63
2023-02-15T17:33:40.535Z,9.77
2023-02-15T17:36:59.645Z,11.25
2023-02-15T17:40:16.054Z,11.57
2023-02-15T17:43:19.052Z,18.67
2023-02-15T17:46:24.553Z,16.65
2023-02-15T17:49:35.202Z,20.63
2023-02-15T17:52:37.968Z,14.95
2023-02-15T17:55:41.668Z,11.07
2023-02-15T17:58:44.725Z,9.93
2023-02-15T18:02:08.120Z,10.82
2023-02-15T18:05:33.452Z,9.45
2023-02-15T18:08:54.853Z,22.17
2023-02-15T18:11:58.171Z,13.20
2023-02-15T18:15:07.954Z,10.50
2023-02-15T18:18:14.102Z,13.30
2023-02-15T18:21:16.980Z,10.80
2023-02-15T18:24:24.878Z,8.85
2023-02-15T18:27:27.650Z,9.13
2023-02-15T18:30:30.684Z,8.07
2023-02-15T18:33:41.546Z,7.70
2023-02-15T18:36:46.256Z,8.77
2023-02-15T18:39:50.840Z,9.40
2023-02-15T18:42:53.934Z,8.57
2023-02-15T18:45:57.053Z,9.95
2023-02-15T18:49:00.326Z,9.55
2023-02-15T18:52:04.127Z,9.93
2023-02-15T18:55:23.527Z,10.15
2023-02-15T18:58:28.438Z,7.93
2023-02-15T19:01:31.579Z,8.27
2023-02-15T19:04:34.578Z,8.18
2023-02-15T19:07:37.797Z,8.63
2023-02-15T19:10:40.761Z,7.18
2023-02-15T19:13:44.244Z,8.20
2023-02-15T19:16:47.245Z,7.18
2023-02-15T19:19:51.833Z,7.72
2023-02-15T19:22:56.615Z,7.18
2023-02-15T19:25:59.673Z,7.47
2023-02-15T19:29:02.883Z,6.38
2023-02-15T19:32:05.967Z,8.48
2023-02-15T19:35:15.696Z,7.45
2023-02-15T19:38:20.419Z,8.35
2023-02-15T19:41:34.746Z,7.35
2023-02-15T19:44:40.046Z,7.60
2023-02-15T19:47:43.768Z,5.95
2023-02-15T19:50:47.255Z,9.13
2023-02-15T19:53:50.246Z,18.98
2023-02-15T19:56:52.963Z,26.98
2023-02-15T19:59:55.947Z,28.02
2023-02-15T20:03:00.138Z,10.82
2023-02-15T20:06:03.045Z,11.48
2023-02-15T20:09:06.117Z,18.88
2023-02-15T20:12:24.518Z,13.38
2023-02-15T20:15:28.491Z,7.30
2023-02-15T20:18:31.751Z,7.35
2023-02-15T20:21:36.381Z,9.55
2023-02-15T20:24:39.263Z,9.10
2023-02-15T20:27:44.320Z,9.68
2023-02-15T20:30:47.981Z,9.98
2023-02-15T20:33:51.460Z,9.05
2023-02-15T20:36:54.596Z,7.82
2023-02-15T20:39:57.466Z,7.50
2023-02-15T20:43:01.368Z,10.15
2023-02-15T20:46:04.653Z,7.85
2023-02-15T20:49:07.945Z,15.93
2023-02-15T20:52:19.606Z,13.82
2023-02-15T20:55:29.614Z,19.58
2023-02-15T20:58:38.745Z,24.77
2023-02-15T21:01:44.298Z,31.08
2023-02-15T21:04:47.123Z,21.85
2023-02-15T21:07:51.141Z,25.55
2023-02-15T21:10:54.930Z,23.30
2023-02-15T21:13:58.380Z,18.70
2023-02-15T21:17:01.393Z,17.30
2023-02-15T21:20:04.410Z,11.85
2023-02-15T21:23:07.881Z,14.73
2023-02-15T21:26:22.656Z,11.93
2023-02-15T21:29:30.770Z,9.60
2023-02-15T21:32:36.076Z,7.85
2023-02-15T21:35:39.720Z,7.50
2023-02-15T21:38:42.720Z,6.47
2023-02-15T21:42:08.693Z,5.72
2023-02-15T21:45:35.042Z,6.65
2023-02-15T21:48:37.769Z,7.07
2023-02-15T21:51:59.160Z,6.97
2023-02-15T21:55:02.108Z,7.13
2023-02-15T21:58:06.168Z,7.47
2023-02-15T22:01:28.565Z,8.10
2023-02-15T22:04:31.411Z,7.82
2023-02-15T22:07:34.015Z,6.28
2023-02-15T22:10:36.750Z,7.28
2023-02-15T22:13:40.063Z,7.53
2023-02-15T22:16:42.720Z,8.57
2023-02-15T22:19:46.744Z,7.10
2023-02-15T22:22:50.436Z,6.93
2023-02-15T22:25:59.090Z,7.00
2023-02-15T22:29:01.800Z,7.15
2023-02-15T22:32:05.106Z,8.48
2023-02-15T22:35:15.967Z,7.57
2023-02-15T22:38:18.912Z,8.00
2023-02-15T22:41:23.948Z,6.70
2023-02-15T22:44:30.309Z,8.30
2023-02-15T22:47:34.661Z,5.77
2023-02-15T22:50:37.942Z,6.32
2023-02-15T22:53:43.227Z,7.03
2023-02-15T22:56:52.927Z,8.43
2023-02-15T22:59:55.841Z,7.35
2023-02-15T23:02:58.605Z,7.90
2023-02-15T23:06:01.119Z,6.35
2023-02-15T23:09:03.996Z,6.75
2023-02-15T23:12:27.991Z,8.63
2023-02-15T23:15:33.127Z,5.65
2023-02-15T23:18:41.515Z,7.63
2023-02-15T23:21:44.577Z,8.45
2023-02-15T23:24:52.013Z,9.43
2023-02-15T23:27:57.393Z,11.43
2023-02-15T23:31:00.394Z,9.82
2023-02-15T23:34:12.054Z,15.48
2023-02-15T23:37:18.307Z,10.07
2023-02-15T23:40:40.564Z,15.07
2023-02-15T23:43:54.784Z,7.10
2023-02-15T23:46:58.726Z,6.07
2023-02-15T23:50:01.677Z,7.32
2023-02-15T23:53:04.588Z,5.90
2023-02-15T23:56:07.860Z,5.72
2023-02-15T23:59:16.432Z,5.70
